createdAt,value
2019-03-25T00:00:43.528Z,41.90
2019-03-25T00:03:13.002Z,46.47
2019-03-25T00:05:41.427Z,51.10
2019-03-25T00:08:09.833Z,45.87
2019-03-25T00:10:38.236Z,47.77
2019-03-25T00:13:06.636Z,51.60
2019-03-25T00:15:35.033Z,48.80
2019-03-25T00:18:03.429Z,46.50
2019-03-25T00:20:31.843Z,49.13
2019-03-25T00:23:00.251Z,47.10
2019-03-25T00:25:28.680Z,42.70
2019-03-25T00:27:57.084Z,42.63
2019-03-25T00:30:25.508Z,43.70
2019-03-25T00:32:53.907Z,41.97
2019-03-25T00:35:22.327Z,39.20
2019-03-25T00:37:50.716Z,42.73
2019-03-25T00:40:19.144Z,37.17
2019-03-25T00:42:47.551Z,35.00
2019-03-25T00:45:15.969Z,46.63
2019-03-25T00:47:44.372Z,31.90
2019-03-25T00:50:12.865Z,29.67
2019-03-25T00:52:41.264Z,30.73
2019-03-25T00:55:09.668Z,25.20
2019-03-25T00:57:38.078Z,27.90
2019-03-25T01:00:08.253Z,22.80
2019-03-25T01:02:36.637Z,26.67
2019-03-25T01:05:05.796Z,24.17
2019-03-25T01:07:34.278Z,24.30
2019-03-25T01:10:03.264Z,22.13
2019-03-25T01:12:31.653Z,24.63
2019-03-25T01:15:00.167Z,18.53
2019-03-25T01:17:28.743Z,22.33
2019-03-25T01:19:57.156Z,19.73
2019-03-25T01:22:25.553Z,21.13
2019-03-25T01:25:01.716Z,20.60
2019-03-25T01:27:24.075Z,16.97
2019-03-25T01:29:52.773Z,19.87
2019-03-25T01:32:21.177Z,21.50
2019-03-25T01:34:49.589Z,18.13
2019-03-25T01:37:17.983Z,24.07
2019-03-25T01:39:46.399Z,20.23
2019-03-25T01:42:14.804Z,17.70
2019-03-25T01:44:43.207Z,20.73
2019-03-25T01:47:11.597Z,13.40
2019-03-25T01:49:40.050Z,13.87
2019-03-25T01:52:08.543Z,12.37
2019-03-25T01:54:37.099Z,11.67
2019-03-25T01:57:05.706Z,14.77
2019-03-25T01:59:34.341Z,12.73
2019-03-25T02:02:02.944Z,13.83
2019-03-25T02:04:31.527Z,12.23
2019-03-25T02:07:00.176Z,13.13
2019-03-25T02:09:28.750Z,13.00
2019-03-25T02:11:57.354Z,13.93
2019-03-25T02:14:27.877Z,12.20
2019-03-25T02:16:56.454Z,15.40
2019-03-25T02:19:25.043Z,8.97
2019-03-25T02:21:53.640Z,12.80
2019-03-25T02:24:22.219Z,10.90
2019-03-25T02:26:50.814Z,14.70
2019-03-25T02:29:19.359Z,11.23
2019-03-25T02:31:48.011Z,8.13
2019-03-25T02:34:16.545Z,14.73
2019-03-25T02:36:45.153Z,13.27
2019-03-25T02:39:13.739Z,12.07
2019-03-25T02:41:42.331Z,7.73
2019-03-25T02:44:10.962Z,11.90
2019-03-25T02:46:39.542Z,10.90
2019-03-25T02:49:08.978Z,13.53
2019-03-25T02:51:37.585Z,9.10
2019-03-25T02:54:06.154Z,14.10
2019-03-25T02:56:34.803Z,9.87
2019-03-25T02:59:03.385Z,12.37
2019-03-25T03:01:31.949Z,9.13
2019-03-25T03:04:00.578Z,8.03
2019-03-25T03:06:29.119Z,15.83
2019-03-25T03:08:57.761Z,8.10
2019-03-25T03:11:26.405Z,10.20
2019-03-25T03:13:54.936Z,10.77
2019-03-25T03:16:23.539Z,8.17
2019-03-25T03:18:52.127Z,9.83
2019-03-25T03:21:20.732Z,6.43
2019-03-25T03:23:49.310Z,9.80
2019-03-25T03:26:17.870Z,10.07
2019-03-25T03:28:46.415Z,9.10
2019-03-25T03:31:15.027Z,10.47
2019-03-25T03:33:43.662Z,12.80
2019-03-25T03:36:12.302Z,12.60
2019-03-25T03:38:40.925Z,14.00
2019-03-25T03:41:09.558Z,8.03
2019-03-25T03:43:38.137Z,9.30
2019-03-25T03:46:06.760Z,12.83
2019-03-25T03:48:35.365Z,10.80
2019-03-25T03:51:04.387Z,11.97
2019-03-25T03:53:34.362Z,17.83
2019-03-25T03:56:12.838Z,10.23
2019-03-25T03:58:34.296Z,12.13
2019-03-25T04:01:02.700Z,11.97
2019-03-25T04:03:31.086Z,11.93
2019-03-25T04:05:59.490Z,12.93
2019-03-25T04:08:27.890Z,11.43
2019-03-25T04:10:56.299Z,11.03
2019-03-25T04:13:24.695Z,13.80
2019-03-25T04:15:53.109Z,10.73
2019-03-25T04:18:21.490Z,12.87
2019-03-25T04:20:49.897Z,13.00
2019-03-25T04:23:18.294Z,11.40
2019-03-25T04:25:46.708Z,7.53
2019-03-25T04:28:15.142Z,9.83
2019-03-25T04:30:43.552Z,13.13
2019-03-25T04:33:11.950Z,12.50
2019-03-25T04:35:40.351Z,10.33
2019-03-25T04:38:08.743Z,12.30
2019-03-25T04:40:37.207Z,9.60
2019-03-25T04:43:05.620Z,14.80
2019-03-25T04:45:34.036Z,9.63
2019-03-25T04:48:02.458Z,14.43
2019-03-25T04:50:30.847Z,12.40
2019-03-25T04:52:59.266Z,15.80
2019-03-25T04:55:27.663Z,15.77
2019-03-25T04:57:56.152Z,16.77
2019-03-25T05:00:27.627Z,22.20
2019-03-25T05:02:56.040Z,23.00
2019-03-25T05:05:24.442Z,18.30
2019-03-25T05:07:52.868Z,20.17
2019-03-25T05:10:21.254Z,20.63
2019-03-25T05:12:49.674Z,18.37
2019-03-25T05:15:18.079Z,12.47
2019-03-25T05:17:46.491Z,20.17
2019-03-25T05:20:14.895Z,17.83
2019-03-25T05:22:43.293Z,18.37
2019-03-25T05:25:11.709Z,18.20
2019-03-25T05:27:40.129Z,16.17
2019-03-25T05:30:08.869Z,18.40
2019-03-25T05:32:37.284Z,15.93
2019-03-25T05:35:07.045Z,14.23
2019-03-25T05:37:35.461Z,16.00
2019-03-25T05:40:04.209Z,14.57
2019-03-25T05:42:32.639Z,19.03
2019-03-25T05:45:01.103Z,16.27
2019-03-25T05:47:29.523Z,17.33
2019-03-25T05:49:57.977Z,16.07
2019-03-25T05:52:26.407Z,17.23
2019-03-25T05:54:54.808Z,17.00
2019-03-25T05:57:23.228Z,12.07
2019-03-25T05:59:51.613Z,14.87
2019-03-25T06:02:20.028Z,12.93
2019-03-25T06:04:48.427Z,15.73
2019-03-25T06:07:16.832Z,16.33
2019-03-25T06:09:45.247Z,19.50
2019-03-25T06:12:13.630Z,15.50
2019-03-25T06:14:42.056Z,10.53
2019-03-25T06:17:10.463Z,18.37
2019-03-25T06:19:38.873Z,10.63
2019-03-25T06:22:07.287Z,11.23
2019-03-25T06:24:35.681Z,17.80
2019-03-25T06:27:13.616Z,16.80
2019-03-25T06:29:34.207Z,15.83
2019-03-25T06:32:02.612Z,17.83
2019-03-25T06:34:31.031Z,21.67
2019-03-25T06:36:59.455Z,16.43
2019-03-25T06:39:27.855Z,16.00
2019-03-25T06:41:56.242Z,12.43
2019-03-25T06:44:24.667Z,14.77
2019-03-25T06:46:53.062Z,16.60
2019-03-25T06:49:21.472Z,14.17
2019-03-25T06:51:49.875Z,19.60
2019-03-25T06:54:18.276Z,13.67
2019-03-25T06:56:46.673Z,14.63
2019-03-25T06:59:15.182Z,13.20
2019-03-25T07:01:43.630Z,9.63
2019-03-25T07:04:12.027Z,14.87
2019-03-25T07:06:40.445Z,13.50
2019-03-25T07:09:08.912Z,13.80
2019-03-25T07:11:37.459Z,10.53
2019-03-25T07:14:05.857Z,18.47
2019-03-25T07:16:34.250Z,12.93
2019-03-25T07:19:02.715Z,12.43
2019-03-25T07:21:31.113Z,11.90
2019-03-25T07:23:59.497Z,17.90
2019-03-25T07:26:27.915Z,12.37
2019-03-25T07:28:56.311Z,11.10
2019-03-25T07:31:24.709Z,13.50
2019-03-25T07:33:53.097Z,11.83
2019-03-25T07:36:21.497Z,11.80
2019-03-25T07:38:49.895Z,11.30
2019-03-25T07:41:18.290Z,8.83
2019-03-25T07:43:46.675Z,11.93
2019-03-25T07:46:15.084Z,11.33
2019-03-25T07:48:43.492Z,13.80
2019-03-25T07:51:11.891Z,16.37
2019-03-25T07:53:40.291Z,15.03
2019-03-25T07:56:08.727Z,9.60
2019-03-25T07:58:37.180Z,14.50
2019-03-25T08:01:05.593Z,13.33
2019-03-25T08:03:33.980Z,10.67
2019-03-25T08:06:02.412Z,13.90
2019-03-25T08:08:30.938Z,11.10
2019-03-25T08:10:59.340Z,13.10
2019-03-25T08:13:27.727Z,9.03
2019-03-25T08:15:56.155Z,12.70
2019-03-25T08:18:24.553Z,10.60
2019-03-25T08:20:52.954Z,13.33
2019-03-25T08:23:21.334Z,9.10
2019-03-25T08:25:49.737Z,15.20
2019-03-25T08:28:18.145Z,10.13
2019-03-25T08:30:46.573Z,13.30
2019-03-25T08:33:14.953Z,13.43
2019-03-25T08:35:43.428Z,11.20
2019-03-25T08:38:11.824Z,8.80
2019-03-25T08:40:40.224Z,10.10
2019-03-25T08:43:08.627Z,5.70
2019-03-25T08:45:37.061Z,7.60
2019-03-25T08:48:05.527Z,7.30
2019-03-25T08:50:33.974Z,12.30
2019-03-25T08:53:02.471Z,7.60
2019-03-25T08:55:30.879Z,10.90
2019-03-25T08:58:11.214Z,10.23
2019-03-25T09:00:29.457Z,9.30
2019-03-25T09:02:57.873Z,9.93
2019-03-25T09:05:26.264Z,8.33
2019-03-25T09:07:54.719Z,8.70
2019-03-25T09:10:23.277Z,11.50
2019-03-25T09:12:51.671Z,6.93
2019-03-25T09:15:20.124Z,12.53
2019-03-25T09:17:48.535Z,8.53
2019-03-25T09:20:17.457Z,6.77
2019-03-25T09:22:47.087Z,9.87
2019-03-25T09:25:15.537Z,9.00
2019-03-25T09:27:44.022Z,8.67
2019-03-25T09:30:13.523Z,8.90
2019-03-25T09:32:41.953Z,7.80
2019-03-25T09:35:10.572Z,8.63
2019-03-25T09:37:39.315Z,5.93
2019-03-25T09:40:10.112Z,10.73
2019-03-25T09:42:38.607Z,6.03
2019-03-25T09:45:08.611Z,4.20
2019-03-25T09:47:37.977Z,5.10
2019-03-25T09:50:07.505Z,5.33
2019-03-25T09:52:38.649Z,6.70
2019-03-25T09:55:07.976Z,5.73
2019-03-25T09:57:36.373Z,8.67
2019-03-25T10:00:09.917Z,4.33
2019-03-25T10:02:38.390Z,4.80
2019-03-25T10:05:07.139Z,7.37
2019-03-25T10:07:35.883Z,9.00
2019-03-25T10:10:06.729Z,3.73
2019-03-25T10:12:35.417Z,7.27
2019-03-25T10:15:05.244Z,12.47
2019-03-25T10:17:33.643Z,7.03
2019-03-25T10:20:02.043Z,12.20
2019-03-25T10:22:30.443Z,9.70
2019-03-25T10:24:58.845Z,5.37
2019-03-25T10:27:27.251Z,7.80
2019-03-25T10:29:55.643Z,7.70
2019-03-25T10:32:24.055Z,9.30
2019-03-25T10:34:52.443Z,8.80
2019-03-25T10:37:20.857Z,5.47
2019-03-25T10:39:49.245Z,10.50
2019-03-25T10:42:17.641Z,7.20
2019-03-25T10:44:46.609Z,8.37
2019-03-25T10:47:15.028Z,10.97
2019-03-25T10:49:43.416Z,7.63
2019-03-25T10:52:11.823Z,12.67
2019-03-25T10:54:40.248Z,7.17
2019-03-25T10:57:08.819Z,8.50
2019-03-25T10:59:37.217Z,9.07
2019-03-25T11:02:05.627Z,8.53
2019-03-25T11:04:34.046Z,8.53
2019-03-25T11:07:02.496Z,8.13
2019-03-25T11:09:30.894Z,11.73
2019-03-25T11:11:59.304Z,11.73
2019-03-25T11:14:27.702Z,8.47
2019-03-25T11:16:56.100Z,6.70
2019-03-25T11:19:24.497Z,9.97
2019-03-25T11:21:52.902Z,7.20
2019-03-25T11:24:21.312Z,7.57
2019-03-25T11:26:49.698Z,7.40
2019-03-25T11:29:18.118Z,8.50
2019-03-25T11:31:46.524Z,7.70
2019-03-25T11:34:14.931Z,6.00
2019-03-25T11:36:43.329Z,8.60
2019-03-25T11:39:11.760Z,7.37
2019-03-25T11:41:40.167Z,7.70
2019-03-25T11:44:08.647Z,6.43
2019-03-25T11:46:37.033Z,6.33
2019-03-25T11:49:05.442Z,8.07
2019-03-25T11:51:33.848Z,6.93
2019-03-25T11:54:02.260Z,6.00
2019-03-25T11:56:30.643Z,7.00
2019-03-25T11:59:19.048Z,8.70
2019-03-25T12:01:47.678Z,7.23
2019-03-25T12:04:16.069Z,7.30
2019-03-25T12:06:44.482Z,8.87
2019-03-25T12:09:13.022Z,8.63
2019-03-25T12:11:41.414Z,8.23
2019-03-25T12:14:09.819Z,7.40
2019-03-25T12:16:38.204Z,6.50
2019-03-25T12:19:06.617Z,7.83
2019-03-25T12:21:35.025Z,8.27
2019-03-25T12:24:03.511Z,6.83
2019-03-25T12:26:31.973Z,10.70
2019-03-25T12:29:00.394Z,9.20
2019-03-25T12:31:28.801Z,5.90
2019-03-25T12:33:57.207Z,6.93
2019-03-25T12:36:25.613Z,7.40
2019-03-25T12:38:54.097Z,9.80
2019-03-25T12:41:22.496Z,7.57
2019-03-25T12:43:50.975Z,7.30
2019-03-25T12:46:19.373Z,5.43
2019-03-25T12:48:47.787Z,5.03
2019-03-25T12:51:16.179Z,5.27
2019-03-25T12:53:44.596Z,3.10
2019-03-25T12:56:13.001Z,4.17
2019-03-25T12:58:41.397Z,7.20
2019-03-25T13:01:09.785Z,5.53
2019-03-25T13:03:40.560Z,7.30
2019-03-25T13:06:08.412Z,6.47
2019-03-25T13:08:36.805Z,7.97
2019-03-25T13:11:05.480Z,5.80
2019-03-25T13:13:33.885Z,8.47
2019-03-25T13:16:02.333Z,9.50
2019-03-25T13:18:30.738Z,6.27
2019-03-25T13:20:59.137Z,6.77
2019-03-25T13:23:27.552Z,6.07
2019-03-25T13:25:55.942Z,8.17
2019-03-25T13:28:24.362Z,10.43
2019-03-25T13:30:52.765Z,6.10
2019-03-25T13:33:21.186Z,10.10
2019-03-25T13:35:49.570Z,6.73
2019-03-25T13:38:17.972Z,6.83
2019-03-25T13:40:46.605Z,15.33
2019-03-25T13:43:15.025Z,5.87
2019-03-25T13:45:43.411Z,8.67
2019-03-25T13:48:11.808Z,5.90
2019-03-25T13:50:40.232Z,15.50
2019-03-25T13:53:08.627Z,6.33
2019-03-25T13:55:37.035Z,8.80
2019-03-25T13:58:05.437Z,9.00
2019-03-25T14:00:36.578Z,5.83
2019-03-25T14:03:05.047Z,10.97
2019-03-25T14:05:33.447Z,10.00
2019-03-25T14:08:01.848Z,8.60
2019-03-25T14:10:30.259Z,6.77
2019-03-25T14:12:58.659Z,6.60
2019-03-25T14:15:27.068Z,6.37
2019-03-25T14:17:55.467Z,4.27
2019-03-25T14:20:23.875Z,5.57
2019-03-25T14:22:52.267Z,4.10
2019-03-25T14:25:20.679Z,7.20
2019-03-25T14:27:49.085Z,5.60
2019-03-25T14:30:17.809Z,3.23
2019-03-25T14:32:46.206Z,7.60
2019-03-25T14:35:14.602Z,4.53
2019-03-25T14:37:42.999Z,7.03
2019-03-25T14:40:11.480Z,4.10
2019-03-25T14:42:39.880Z,7.30
2019-03-25T14:45:09.036Z,6.83
2019-03-25T14:47:37.431Z,10.03
2019-03-25T14:50:07.188Z,6.63
2019-03-25T14:52:35.637Z,7.83
2019-03-25T14:55:05.291Z,11.90
2019-03-25T14:57:34.665Z,7.67
2019-03-25T15:00:03.232Z,9.70
2019-03-25T15:02:31.636Z,8.53
2019-03-25T15:05:00.145Z,7.03
2019-03-25T15:07:28.726Z,6.10
2019-03-25T15:09:57.132Z,8.07
2019-03-25T15:12:25.597Z,5.17
2019-03-25T15:14:55.187Z,5.60
2019-03-25T15:17:23.581Z,5.17
2019-03-25T15:19:51.993Z,8.63
2019-03-25T15:22:20.382Z,5.60
2019-03-25T15:24:48.800Z,9.97
2019-03-25T15:27:18.159Z,7.27
2019-03-25T15:29:46.575Z,7.40
2019-03-25T15:32:14.968Z,8.33
2019-03-25T15:34:43.368Z,4.00
2019-03-25T15:37:11.758Z,4.00
2019-03-25T15:39:46.635Z,5.00
2019-03-25T15:42:10.274Z,3.03
2019-03-25T15:44:38.687Z,5.80
2019-03-25T15:47:07.084Z,7.33
2019-03-25T15:49:35.499Z,8.23
2019-03-25T15:52:04.081Z,4.50
2019-03-25T15:54:33.395Z,3.60
2019-03-25T15:57:01.780Z,5.87
2019-03-25T15:59:30.173Z,2.97
2019-03-25T16:01:58.591Z,1.80
2019-03-25T16:04:27.006Z,2.47
2019-03-25T16:06:55.419Z,2.97
2019-03-25T16:09:23.786Z,3.60
2019-03-25T16:11:52.185Z,4.10
2019-03-25T16:14:20.592Z,4.83
2019-03-25T16:16:48.999Z,3.40
2019-03-25T16:19:17.379Z,4.77
2019-03-25T16:21:45.794Z,2.00
2019-03-25T16:24:14.197Z,3.50
2019-03-25T16:26:42.607Z,1.80
2019-03-25T16:29:11.003Z,1.03
2019-03-25T16:31:39.407Z,3.37
2019-03-25T16:34:07.797Z,1.73
2019-03-25T16:36:36.215Z,1.97
2019-03-25T16:39:06.807Z,1.13
2019-03-25T16:41:35.224Z,2.60
2019-03-25T16:44:03.704Z,3.90
2019-03-25T16:46:32.109Z,1.00
2019-03-25T16:49:00.504Z,2.43
2019-03-25T16:51:28.912Z,1.67
2019-03-25T16:53:57.310Z,1.47
2019-03-25T16:56:25.708Z,0.93
2019-03-25T16:58:54.099Z,0.50
2019-03-25T17:01:22.529Z,0.60
2019-03-25T17:03:50.932Z,1.20
2019-03-25T17:06:19.325Z,1.80
2019-03-25T17:08:47.719Z,1.83
2019-03-25T17:11:16.121Z,0.70
2019-03-25T17:13:44.519Z,1.80
2019-03-25T17:16:12.925Z,0.73
2019-03-25T17:18:41.323Z,0.70
2019-03-25T17:21:09.717Z,0.93
2019-03-25T17:23:38.101Z,2.20
2019-03-25T17:26:06.503Z,2.00
2019-03-25T17:28:34.909Z,6.07
2019-03-25T17:31:03.336Z,2.50
2019-03-25T17:33:31.722Z,1.67
2019-03-25T17:36:00.133Z,1.00
2019-03-25T17:38:28.526Z,2.00
2019-03-25T17:40:56.921Z,1.47
2019-03-25T17:43:25.368Z,1.20
2019-03-25T17:45:53.810Z,2.17
2019-03-25T17:48:22.216Z,2.63
2019-03-25T17:50:52.907Z,1.93
2019-03-25T17:53:20.807Z,1.87
2019-03-25T17:55:49.236Z,2.73
2019-03-25T17:58:17.615Z,1.00
2019-03-25T18:00:51.969Z,1.90
2019-03-25T18:03:20.383Z,1.20
2019-03-25T18:05:48.782Z,1.30
2019-03-25T18:08:17.202Z,1.93
2019-03-25T18:10:45.583Z,5.10
2019-03-25T18:13:21.902Z,5.60
2019-03-25T18:15:44.098Z,20.73
2019-03-25T18:18:12.505Z,25.70
2019-03-25T18:20:40.897Z,51.40
2019-03-25T18:23:09.304Z,34.10
2019-03-25T18:25:37.698Z,5.63
2019-03-25T18:28:06.125Z,31.17
2019-03-25T18:30:35.282Z,10.90
2019-03-25T18:33:03.689Z,7.17
2019-03-25T18:35:32.080Z,6.80
2019-03-25T18:38:00.487Z,2.90
2019-03-25T18:40:28.879Z,3.83
2019-03-25T18:42:57.281Z,3.30
2019-03-25T18:45:25.680Z,4.87
2019-03-25T18:47:54.157Z,3.77
2019-03-25T18:50:22.547Z,4.47
2019-03-25T18:52:50.945Z,3.40
2019-03-25T18:55:19.353Z,7.83
2019-03-25T18:57:47.755Z,3.20
2019-03-25T19:00:30.893Z,3.13
2019-03-25T19:02:59.533Z,4.80
2019-03-25T19:05:27.998Z,4.87
2019-03-25T19:07:56.746Z,3.27
2019-03-25T19:10:28.571Z,5.37
2019-03-25T19:12:57.421Z,2.87
2019-03-25T19:15:26.022Z,4.90
2019-03-25T19:17:54.410Z,7.87
2019-03-25T19:20:22.831Z,4.30
2019-03-25T19:22:51.308Z,3.60
2019-03-25T19:25:19.782Z,5.23
2019-03-25T19:27:48.189Z,6.73
2019-03-25T19:30:16.730Z,4.27
2019-03-25T19:32:45.120Z,7.20
2019-03-25T19:35:13.949Z,5.17
2019-03-25T19:37:42.703Z,5.27
2019-03-25T19:40:11.185Z,4.10
2019-03-25T19:42:39.600Z,5.40
2019-03-25T19:45:09.313Z,4.93
2019-03-25T19:47:37.696Z,6.93
2019-03-25T19:50:07.934Z,5.10
2019-03-25T19:52:36.330Z,6.73
2019-03-25T19:55:05.303Z,9.90
2019-03-25T19:57:33.754Z,6.30
2019-03-25T20:00:02.509Z,5.13
2019-03-25T20:02:30.954Z,4.60
2019-03-25T20:04:59.373Z,9.33
2019-03-25T20:07:27.771Z,8.60
2019-03-25T20:09:56.231Z,6.20
2019-03-25T20:12:24.660Z,9.10
2019-03-25T20:14:53.056Z,5.53
2019-03-25T20:17:21.472Z,9.63
2019-03-25T20:19:50.004Z,8.70
2019-03-25T20:22:18.452Z,8.13
2019-03-25T20:24:46.848Z,11.07
2019-03-25T20:27:15.245Z,3.27
2019-03-25T20:29:43.855Z,3.53
2019-03-25T20:32:12.314Z,6.90
2019-03-25T20:34:40.754Z,2.17
2019-03-25T20:37:09.168Z,2.47
2019-03-25T20:39:37.581Z,3.10
2019-03-25T20:42:06.006Z,2.10
2019-03-25T20:44:34.491Z,2.00
2019-03-25T20:47:02.962Z,2.63
2019-03-25T20:49:31.333Z,2.00
2019-03-25T20:51:59.738Z,2.77
2019-03-25T20:54:28.143Z,4.93
2019-03-25T20:56:56.545Z,2.20
2019-03-25T20:59:24.961Z,2.13
2019-03-25T21:01:53.359Z,2.53
2019-03-25T21:04:21.839Z,2.60
2019-03-25T21:06:50.248Z,3.07
2019-03-25T21:09:18.655Z,2.73
2019-03-25T21:11:47.123Z,2.57
2019-03-25T21:14:15.515Z,2.03
2019-03-25T21:16:43.933Z,4.53
2019-03-25T21:19:12.345Z,3.07
2019-03-25T21:21:40.768Z,4.03
2019-03-25T21:24:09.213Z,6.73
2019-03-25T21:26:37.626Z,4.70
2019-03-25T21:29:06.020Z,5.53
2019-03-25T21:31:34.451Z,8.47
2019-03-25T21:34:02.894Z,5.43
2019-03-25T21:36:31.309Z,5.67
2019-03-25T21:38:59.688Z,4.80
2019-03-25T21:41:28.096Z,4.57
2019-03-25T21:43:56.533Z,5.33
2019-03-25T21:46:25.071Z,5.90
2019-03-25T21:48:53.557Z,6.13
2019-03-25T21:51:22.000Z,4.77
2019-03-25T21:53:53.034Z,5.17
2019-03-25T21:56:20.578Z,5.30
2019-03-25T21:58:49.052Z,5.70
2019-03-25T22:01:17.460Z,7.43
2019-03-25T22:03:45.838Z,5.87
2019-03-25T22:06:14.247Z,6.00
2019-03-25T22:08:42.643Z,5.80
2019-03-25T22:11:11.064Z,6.27
2019-03-25T22:13:39.455Z,8.40
2019-03-25T22:16:07.871Z,6.67
2019-03-25T22:18:36.280Z,8.30
2019-03-25T22:21:04.672Z,9.00
2019-03-25T22:23:33.067Z,11.27
2019-03-25T22:26:01.469Z,9.73
2019-03-25T22:28:29.880Z,9.23
2019-03-25T22:30:58.287Z,9.23
2019-03-25T22:33:26.693Z,11.10
2019-03-25T22:35:55.116Z,8.67
2019-03-25T22:38:23.504Z,10.53
2019-03-25T22:40:51.909Z,11.20
2019-03-25T22:43:20.315Z,14.30
2019-03-25T22:45:48.733Z,12.93
2019-03-25T22:48:17.144Z,10.93
2019-03-25T22:50:45.564Z,11.37
2019-03-25T22:53:13.970Z,10.67
2019-03-25T22:55:42.388Z,11.80
2019-03-25T22:58:10.797Z,13.23
2019-03-25T23:00:40.877Z,14.20
2019-03-25T23:03:09.328Z,11.63
2019-03-25T23:05:37.735Z,13.20
2019-03-25T23:08:06.157Z,15.97
2019-03-25T23:10:34.541Z,13.60
2019-03-25T23:13:02.958Z,13.40
2019-03-25T23:15:31.373Z,14.93
2019-03-25T23:17:59.783Z,14.13
2019-03-25T23:20:28.179Z,14.13
2019-03-25T23:22:56.604Z,16.57
2019-03-25T23:25:25.005Z,14.37
2019-03-25T23:27:53.415Z,15.97
2019-03-25T23:30:21.814Z,14.50
2019-03-25T23:32:50.253Z,13.10
2019-03-25T23:35:18.659Z,13.43
2019-03-25T23:37:47.088Z,13.70
2019-03-25T23:40:15.494Z,16.57
2019-03-25T23:42:43.911Z,18.63
2019-03-25T23:45:12.306Z,13.93
2019-03-25T23:47:40.727Z,17.37
2019-03-25T23:50:09.257Z,15.63
2019-03-25T23:52:37.661Z,14.70
2019-03-25T23:55:06.507Z,17.47
2019-03-25T23:57:34.928Z,15.83
